createdAt,value
2022-08-05T00:15:54.871Z,23.02
2022-08-05T00:36:16.199Z,22.75
2022-08-05T00:40:54.962Z,22.77
2022-08-05T00:43:51.642Z,22.70
2022-08-05T00:46:20.894Z,22.70
2022-08-05T00:49:10.167Z,22.64
2022-08-05T00:51:51.853Z,22.64
2022-08-05T00:54:21.651Z,22.65
2022-08-05T00:56:57.140Z,22.58
2022-08-05T00:59:26.290Z,22.55
2022-08-05T01:02:03.583Z,22.55
2022-08-05T01:04:33.033Z,22.53
2022-08-05T01:07:05.101Z,22.40
2022-08-05T01:09:34.694Z,22.46
2022-08-05T01:12:18.164Z,22.51
2022-08-05T01:14:54.809Z,22.44
2022-08-05T01:17:32.680Z,22.43
2022-08-05T01:20:23.720Z,22.40
2022-08-05T01:23:15.264Z,22.36
2022-08-05T01:26:07.288Z,22.28
2022-08-05T01:28:47.092Z,22.34
2022-08-05T01:31:24.516Z,22.33
2022-08-05T01:34:02.220Z,22.27
2022-08-05T01:36:36.897Z,22.30
2022-08-05T01:39:13.243Z,22.23
2022-08-05T01:41:44.591Z,22.25
2022-08-05T01:44:16.655Z,22.14
2022-08-05T01:46:47.255Z,22.16
2022-08-05T01:49:24.953Z,22.19
2022-08-05T01:52:01.001Z,22.21
2022-08-05T01:54:46.201Z,22.17
2022-08-05T01:58:12.459Z,22.07
2022-08-05T02:00:14.976Z,22.00
2022-08-05T02:02:55.148Z,21.97
2022-08-05T02:05:34.033Z,22.04
2022-08-05T02:08:04.063Z,22.01
2022-08-05T02:10:40.848Z,22.06
2022-08-05T02:13:16.954Z,21.96
2022-08-05T02:15:55.824Z,22.00
2022-08-05T02:18:35.208Z,22.04
2022-08-05T02:21:15.528Z,22.00
2022-08-05T02:23:48.492Z,22.07
2022-08-05T02:26:27.429Z,21.99
2022-08-05T02:29:01.279Z,21.95
2022-08-05T02:31:36.535Z,21.92
2022-08-05T02:34:11.951Z,21.93
2022-08-05T02:36:46.566Z,21.87
2022-08-05T02:39:23.189Z,21.88
2022-08-05T02:42:00.651Z,21.86
2022-08-05T02:44:33.920Z,21.88
2022-08-05T02:47:07.301Z,21.87
2022-08-05T02:49:40.635Z,21.83
2022-08-05T02:52:29.608Z,21.74
2022-08-05T02:55:05.442Z,21.79
2022-08-05T02:58:10.669Z,21.73
2022-08-05T03:00:31.479Z,21.80
2022-08-05T03:03:10.326Z,21.69
2022-08-05T03:06:55.888Z,21.72
2022-08-05T03:08:31.118Z,21.68
2022-08-05T03:11:53.385Z,21.76
2022-08-05T03:13:51.683Z,21.75
2022-08-05T03:16:32.051Z,21.77
2022-08-05T03:19:06.509Z,21.75
2022-08-05T03:21:50.095Z,21.64
2022-08-05T03:24:29.688Z,21.60
2022-08-05T03:27:00.188Z,21.70
2022-08-05T03:29:44.882Z,21.75
2022-08-05T03:32:19.786Z,21.59
2022-08-05T03:34:51.628Z,21.54
2022-08-05T03:37:22.574Z,21.71
2022-08-05T03:40:01.101Z,21.63
2022-08-05T03:42:32.239Z,21.57
2022-08-05T03:45:11.796Z,21.53
2022-08-05T03:47:50.639Z,21.51
2022-08-05T03:50:21.675Z,21.55
2022-08-05T03:55:49.906Z,21.56
2022-08-05T03:56:10.299Z,21.59
2022-08-05T03:58:44.767Z,21.52
2022-08-05T04:01:16.689Z,21.58
2022-08-05T04:04:05.452Z,21.58
2022-08-05T04:06:42.794Z,21.51
2022-08-05T04:09:25.962Z,21.52
2022-08-05T04:11:57.314Z,21.45
2022-08-05T04:14:29.407Z,21.48
2022-08-05T04:17:03.269Z,21.49
2022-08-05T04:19:45.082Z,21.52
2022-08-05T04:22:21.381Z,21.40
2022-08-05T04:24:52.632Z,21.48
2022-08-05T04:27:41.801Z,21.49
2022-08-05T04:30:13.155Z,21.54
2022-08-05T04:32:42.946Z,21.50
2022-08-05T04:35:19.623Z,21.51
2022-08-05T04:38:01.312Z,21.53
2022-08-05T04:40:36.465Z,21.54
2022-08-05T04:43:06.864Z,21.59
2022-08-05T04:45:49.073Z,21.54
2022-08-05T04:48:28.382Z,21.57
2022-08-05T04:51:03.195Z,21.62
2022-08-05T04:53:41.227Z,21.63
2022-08-05T04:56:33.468Z,21.64
2022-08-05T04:59:00.630Z,21.73
2022-08-05T05:02:08.232Z,21.67
2022-08-05T05:04:47.717Z,21.70
2022-08-05T05:07:29.556Z,21.74
2022-08-05T05:10:05.486Z,21.82
2022-08-05T05:12:36.701Z,21.79
2022-08-05T05:15:10.763Z,21.83
2022-08-05T05:17:56.180Z,21.81
2022-08-05T05:20:28.451Z,21.86
2022-08-05T05:22:58.228Z,21.94
2022-08-05T05:25:32.843Z,21.97
2022-08-05T05:28:09.991Z,22.04
2022-08-05T05:30:39.890Z,22.06
2022-08-05T05:33:17.033Z,22.10
2022-08-05T05:35:48.287Z,22.23
2022-08-05T05:38:22.698Z,22.19
2022-08-05T05:40:58.432Z,22.63
2022-08-05T05:43:58.272Z,22.57
2022-08-05T05:46:18.210Z,22.42
2022-08-05T05:48:49.122Z,22.44
2022-08-05T05:51:23.631Z,22.65
2022-08-05T05:53:58.955Z,22.53
2022-08-05T05:56:34.789Z,22.59
2022-08-05T05:59:07.435Z,22.52
2022-08-05T06:01:39.794Z,22.52
2022-08-05T06:04:11.986Z,22.58
2022-08-05T06:06:43.009Z,22.58
2022-08-05T06:09:17.593Z,22.65
2022-08-05T06:11:59.986Z,22.61
2022-08-05T06:14:32.276Z,22.75
2022-08-05T06:17:22.372Z,22.71
2022-08-05T06:19:57.103Z,22.70
2022-08-05T06:22:33.582Z,22.79
2022-08-05T06:25:59.142Z,22.85
2022-08-05T06:28:12.174Z,22.87
2022-08-05T06:30:44.240Z,22.88
2022-08-05T06:33:13.102Z,22.90
2022-08-05T06:36:07.370Z,23.03
2022-08-05T06:38:39.232Z,23.09
2022-08-05T06:41:16.563Z,23.18
2022-08-05T06:43:57.999Z,23.24
2022-08-05T06:46:30.525Z,23.26
2022-08-05T06:49:01.246Z,23.32
2022-08-05T06:51:31.833Z,23.35
2022-08-05T06:54:02.632Z,23.40
2022-08-05T06:56:34.901Z,23.48
2022-08-05T06:59:08.498Z,23.60
2022-08-05T07:01:40.726Z,23.68
2022-08-05T07:04:14.003Z,23.72
2022-08-05T07:06:43.797Z,23.78
2022-08-05T07:09:12.697Z,23.92
2022-08-05T07:11:49.462Z,24.02
2022-08-05T07:14:39.375Z,24.09
2022-08-05T07:17:58.596Z,24.30
2022-08-05T07:20:32.451Z,24.26
2022-08-05T07:22:47.781Z,24.29
2022-08-05T07:25:54.472Z,24.35
2022-08-05T07:28:11.448Z,24.45
2022-08-05T07:30:43.162Z,24.57
2022-08-05T07:33:16.672Z,24.58
2022-08-05T07:36:03.641Z,24.63
2022-08-05T07:38:43.340Z,24.76
2022-08-05T07:42:13.615Z,24.87
2022-08-05T07:44:14.223Z,24.96
2022-08-05T07:46:50.434Z,25.02
2022-08-05T07:49:20.701Z,25.16
2022-08-05T07:51:53.611Z,25.55
2022-08-05T07:54:31.082Z,25.49
2022-08-05T07:57:17.982Z,25.82
2022-08-05T07:59:50.086Z,25.60
2022-08-05T08:02:30.753Z,25.65
2022-08-05T08:05:17.456Z,25.83
2022-08-05T08:07:59.838Z,25.79
2022-08-05T08:10:30.071Z,25.93
2022-08-05T08:12:59.737Z,26.10
2022-08-05T08:16:34.308Z,26.19
2022-08-05T08:18:21.874Z,26.42
2022-08-05T08:21:02.713Z,26.48
2022-08-05T08:24:02.399Z,26.41
2022-08-05T08:26:26.733Z,26.56
2022-08-05T08:29:22.285Z,26.58
2022-08-05T08:32:21.496Z,26.76
2022-08-05T08:35:07.181Z,26.73
2022-08-05T08:37:45.160Z,26.87
2022-08-05T08:40:16.785Z,26.98
2022-08-05T08:42:58.025Z,27.10
2022-08-05T08:46:15.595Z,27.56
2022-08-05T08:49:07.703Z,27.27
2022-08-05T08:52:03.940Z,27.24
2022-08-05T08:54:55.738Z,27.35
2022-08-05T08:57:42.088Z,27.44
2022-08-05T09:00:21.316Z,27.28
2022-08-05T09:02:52.478Z,27.57
2022-08-05T09:05:38.586Z,27.84
2022-08-05T09:08:30.221Z,27.79
2022-08-05T09:10:59.811Z,27.84
2022-08-05T09:13:31.470Z,27.86
2022-08-05T09:16:43.129Z,28.15
2022-08-05T09:23:09.330Z,28.00
2022-08-05T09:26:01.668Z,28.28
2022-08-05T09:28:33.400Z,28.14
2022-08-05T09:31:22.230Z,28.28
2022-08-05T09:34:01.599Z,28.59
2022-08-05T09:36:59.696Z,28.68
2022-08-05T09:39:45.233Z,28.69
2022-08-05T09:42:23.271Z,29.01
2022-08-05T09:45:17.468Z,29.41
2022-08-05T09:48:21.877Z,29.06
2022-08-05T09:51:00.005Z,28.90
2022-08-05T09:53:53.633Z,29.07
2022-08-05T09:56:27.803Z,29.46
2022-08-05T09:59:04.244Z,29.55
2022-08-05T10:01:36.467Z,29.57
2022-08-05T10:04:12.791Z,29.72
2022-08-05T10:06:49.800Z,29.77
2022-08-05T10:09:29.279Z,29.92
2022-08-05T10:12:18.609Z,30.35
2022-08-05T10:15:21.928Z,29.86
2022-08-05T10:18:16.703Z,30.01
2022-08-05T10:20:49.623Z,30.10
2022-08-05T10:23:34.321Z,29.92
2022-08-05T10:26:14.599Z,29.95
2022-08-05T10:28:46.575Z,30.36
2022-08-05T10:32:52.274Z,30.38
2022-08-05T10:34:08.566Z,30.66
2022-08-05T10:36:39.120Z,30.83
2022-08-05T10:39:24.024Z,31.01
2022-08-05T10:42:01.400Z,30.78
2022-08-05T10:44:32.902Z,30.89
2022-08-05T10:47:26.517Z,30.99
2022-08-05T10:50:32.088Z,31.17
2022-08-05T10:53:00.238Z,31.07
2022-08-05T10:55:32.938Z,31.26
2022-08-05T10:58:20.781Z,31.29
2022-08-05T11:00:55.047Z,31.36
2022-08-05T11:03:27.105Z,31.65
2022-08-05T11:06:15.266Z,31.80
2022-08-05T11:09:45.589Z,31.66
2022-08-05T11:12:50.303Z,31.74
2022-08-05T11:15:24.157Z,32.01
2022-08-05T11:18:32.660Z,31.74
2022-08-05T11:21:48.749Z,32.26
2022-08-05T11:24:30.215Z,32.31
2022-08-05T11:27:45.866Z,32.44
2022-08-05T11:30:20.834Z,32.19
2022-08-05T11:33:34.632Z,32.45
2022-08-05T11:36:34.550Z,32.75
2022-08-05T11:39:08.498Z,32.70
2022-08-05T11:42:01.601Z,33.09
2022-08-05T11:44:52.801Z,33.26
2022-08-05T11:47:48.440Z,33.12
2022-08-05T11:50:16.770Z,33.37
2022-08-05T11:52:49.583Z,33.38
2022-08-05T11:55:19.430Z,33.71
2022-08-05T11:58:08.515Z,33.40
2022-08-05T12:00:39.046Z,34.06
2022-08-05T12:03:28.570Z,33.99
2022-08-05T12:06:10.169Z,34.27
2022-08-05T12:08:50.918Z,34.46
2022-08-05T12:12:04.615Z,34.37
2022-08-05T12:15:16.639Z,34.63
2022-08-05T12:18:04.425Z,35.34
2022-08-05T12:20:38.626Z,35.34
2022-08-05T12:23:13.643Z,35.44
2022-08-05T12:26:00.428Z,35.64
2022-08-05T12:28:37.681Z,35.84
2022-08-05T12:31:07.638Z,35.82
2022-08-05T12:33:38.795Z,35.70
2022-08-05T12:36:09.760Z,36.01
2022-08-05T12:38:49.660Z,36.32
2022-08-05T12:41:19.637Z,36.33
2022-08-05T12:43:55.432Z,36.71
2022-08-05T12:46:28.831Z,36.57
2022-08-05T12:49:05.750Z,37.13
2022-08-05T12:52:12.686Z,36.46
2022-08-05T12:54:37.808Z,36.86
2022-08-05T12:57:09.732Z,36.94
2022-08-05T13:01:56.738Z,37.40
2022-08-05T13:02:39.885Z,37.39
2022-08-05T13:05:11.140Z,37.76
2022-08-05T13:07:59.208Z,37.69
2022-08-05T13:10:34.030Z,38.07
2022-08-05T13:13:08.937Z,38.21
2022-08-05T13:15:50.965Z,37.76
2022-08-05T13:18:20.632Z,38.15
2022-08-05T13:20:50.457Z,38.01
2022-08-05T13:23:22.892Z,38.79
2022-08-05T13:25:59.696Z,38.47
2022-08-05T13:28:32.142Z,38.44
2022-08-05T13:31:13.916Z,38.70
2022-08-05T13:34:21.829Z,38.54
2022-08-05T13:36:33.677Z,38.56
2022-08-05T13:39:24.110Z,38.53
2022-08-05T13:41:53.966Z,38.75
2022-08-05T13:44:24.938Z,38.89
2022-08-05T13:47:02.588Z,38.94
2022-08-05T13:49:37.966Z,39.41
2022-08-05T13:52:17.138Z,39.23
2022-08-05T13:54:53.432Z,39.25
2022-08-05T13:57:24.574Z,39.75
2022-08-05T13:59:59.408Z,39.49
2022-08-05T14:02:31.347Z,39.53
2022-08-05T14:05:29.541Z,39.75
2022-08-05T14:08:19.807Z,39.72
2022-08-05T14:10:50.976Z,40.17
2022-08-05T14:13:23.471Z,39.47
2022-08-05T14:16:07.195Z,39.76
2022-08-05T14:18:38.588Z,38.55
2022-08-05T14:22:07.735Z,38.01
2022-08-05T14:23:57.187Z,37.72
2022-08-05T14:26:38.313Z,37.35
2022-08-05T14:29:16.172Z,36.90
2022-08-05T14:32:02.558Z,36.99
2022-08-05T14:34:36.134Z,37.05
2022-08-05T14:37:06.395Z,36.95
2022-08-05T14:39:51.193Z,36.65
2022-08-05T14:42:25.146Z,36.20
2022-08-05T14:44:56.715Z,35.92
2022-08-05T14:48:05.119Z,36.04
2022-08-05T14:50:19.076Z,35.76
2022-08-05T14:52:56.800Z,35.66
2022-08-05T14:55:38.400Z,35.73
2022-08-05T14:58:11.738Z,35.45
2022-08-05T15:04:47.704Z,35.10
2022-08-05T15:08:11.225Z,34.96
2022-08-05T15:10:09.870Z,35.08
2022-08-05T15:13:00.370Z,34.94
2022-08-05T15:15:54.910Z,34.91
2022-08-05T15:18:20.103Z,34.59
2022-08-05T15:20:49.355Z,34.80
2022-08-05T15:23:19.015Z,34.69
2022-08-05T15:25:52.581Z,34.54
2022-08-05T15:28:27.567Z,34.35
2022-08-05T15:30:57.552Z,34.33
2022-08-05T15:34:04.258Z,34.24
2022-08-05T15:36:24.267Z,34.20
2022-08-05T15:40:41.020Z,34.20
2022-08-05T15:41:57.702Z,33.99
2022-08-05T15:44:30.195Z,33.79
2022-08-05T15:47:25.423Z,33.68
2022-08-05T15:54:58.521Z,33.43
2022-08-05T15:58:04.812Z,33.37
2022-08-05T16:00:50.877Z,33.32
2022-08-05T16:03:27.017Z,33.22
2022-08-05T16:05:57.470Z,33.15
2022-08-05T16:08:30.608Z,33.10
2022-08-05T16:11:00.376Z,33.02
2022-08-05T16:13:34.109Z,32.84
2022-08-05T16:16:03.927Z,32.74
2022-08-05T16:18:33.980Z,32.62
2022-08-05T16:21:05.067Z,32.60
2022-08-05T16:23:54.625Z,32.57
2022-08-05T16:32:29.519Z,32.40
2022-08-05T17:04:33.023Z,31.44
2022-08-05T17:07:03.561Z,31.46
2022-08-05T17:09:58.506Z,31.37
2022-08-05T17:12:51.012Z,31.38
2022-08-05T17:15:19.498Z,31.31
2022-08-05T17:17:55.141Z,31.29
2022-08-05T17:20:26.597Z,31.16
2022-08-05T17:22:57.641Z,31.07
2022-08-05T17:25:40.185Z,30.99
2022-08-05T17:28:10.436Z,30.98
2022-08-05T17:30:50.724Z,30.87
2022-08-05T17:33:21.684Z,30.81
2022-08-05T17:36:08.888Z,30.81
2022-08-05T17:38:39.862Z,30.82
2022-08-05T17:41:22.682Z,30.68
2022-08-05T17:43:58.729Z,30.65
2022-08-05T17:46:28.016Z,30.63
2022-08-05T17:48:58.017Z,30.55
2022-08-05T17:51:28.891Z,30.40
2022-08-05T17:54:09.873Z,30.36
2022-08-05T17:56:39.415Z,30.31
2022-08-05T17:59:08.644Z,30.28
2022-08-05T18:01:49.207Z,30.25
2022-08-05T18:04:21.464Z,30.18
2022-08-05T18:07:00.472Z,30.12
2022-08-05T18:09:59.092Z,30.04
2022-08-05T18:12:23.976Z,29.99
2022-08-05T18:14:53.378Z,29.93
2022-08-05T18:18:01.597Z,29.86
2022-08-05T18:20:14.960Z,29.82
2022-08-05T18:22:54.300Z,29.78
2022-08-05T18:25:24.043Z,29.75
2022-08-05T18:27:54.530Z,29.71
2022-08-05T18:30:23.535Z,29.62
2022-08-05T18:33:00.860Z,29.54
2022-08-05T18:36:01.054Z,29.56
2022-08-05T18:38:25.940Z,29.41
2022-08-05T18:41:56.683Z,29.34
2022-08-05T18:43:48.965Z,29.37
2022-08-05T18:46:20.053Z,29.33
2022-08-05T18:48:52.026Z,29.26
2022-08-05T18:52:05.826Z,29.21
2022-08-05T18:54:31.522Z,29.11
2022-08-05T18:57:01.614Z,29.09
2022-08-05T18:59:42.907Z,29.03
2022-08-05T19:02:27.545Z,29.01
2022-08-05T19:05:02.354Z,28.92
2022-08-05T19:07:50.194Z,28.83
2022-08-05T19:10:28.508Z,28.83
2022-08-05T19:12:58.023Z,28.77
2022-08-05T19:15:56.924Z,28.68
2022-08-05T19:18:21.900Z,28.69
2022-08-05T19:20:52.853Z,28.67
2022-08-05T19:24:05.142Z,28.61
2022-08-05T19:26:14.784Z,28.61
2022-08-05T19:28:45.436Z,28.50
2022-08-05T19:31:19.511Z,28.53
2022-08-05T19:33:56.439Z,28.61
2022-08-05T19:36:29.363Z,28.71
2022-08-05T19:39:05.350Z,28.89
2022-08-05T19:42:06.134Z,28.76
2022-08-05T19:44:24.660Z,28.65
2022-08-05T19:46:58.287Z,28.59
2022-08-05T19:49:27.497Z,28.59
2022-08-05T19:52:13.208Z,28.50
2022-08-05T19:56:15.569Z,28.41
2022-08-05T19:58:29.319Z,28.38
2022-08-05T20:01:01.946Z,28.31
2022-08-05T20:03:40.804Z,28.17
2022-08-05T20:06:28.626Z,28.05
2022-08-05T20:09:06.165Z,27.95
2022-08-05T20:11:48.079Z,27.98
2022-08-05T20:14:27.170Z,27.90
2022-08-05T20:16:59.413Z,27.82
2022-08-05T20:19:41.359Z,27.73
2022-08-05T20:22:10.775Z,27.72
2022-08-05T20:24:41.118Z,27.64
2022-08-05T20:27:11.708Z,27.58
2022-08-05T20:29:42.273Z,27.57
2022-08-05T20:32:28.179Z,27.48
2022-08-05T20:34:57.603Z,27.42
2022-08-05T20:38:06.331Z,27.39
2022-08-05T20:40:19.430Z,27.33
2022-08-05T20:42:49.613Z,27.27
2022-08-05T20:45:21.026Z,27.17
2022-08-05T20:47:50.124Z,27.09
2022-08-05T20:50:21.386Z,27.03
2022-08-05T20:52:51.561Z,26.96
2022-08-05T21:39:34.702Z,26.40
2022-08-05T21:44:01.379Z,26.42
2022-08-05T21:52:22.525Z,26.24
2022-08-05T21:59:48.151Z,26.02
2022-08-05T22:03:04.720Z,25.93
2022-08-05T22:09:45.551Z,25.84
2022-08-05T22:20:39.833Z,25.75
2022-08-05T22:28:08.640Z,25.59
2022-08-05T22:34:43.071Z,25.48
2022-08-05T22:38:15.867Z,25.44
2022-08-05T22:40:49.306Z,25.41
2022-08-05T22:43:41.511Z,25.38
2022-08-05T23:01:04.654Z,25.21
2022-08-05T23:08:26.630Z,25.10
2022-08-05T23:11:34.987Z,25.12
2022-08-05T23:14:10.945Z,25.02
2022-08-05T23:18:01.133Z,24.97
2022-08-05T23:21:48.472Z,24.93
2022-08-05T23:24:24.510Z,24.86
2022-08-05T23:27:17.466Z,24.93
2022-08-05T23:39:54.298Z,24.78
2022-08-05T23:42:31.373Z,24.77
2022-08-05T23:45:03.698Z,24.72
2022-08-05T23:47:47.681Z,24.68
2022-08-05T23:50:20.617Z,24.64
2022-08-05T23:52:51.696Z,24.64
2022-08-05T23:55:31.190Z,24.67
2022-08-05T23:58:03.421Z,24.66
